sensor_id;sensor_type;location;lat;lon;timestamp;P1;durP1;ratioP1;P2;durP2;ratioP2
26303;SDS011;57113;48.680;8.890;2023-04-03T00:01:12;1.95;;;1.60;;
26303;SDS011;57113;48.680;8.890;2023-04-03T00:03:38;2.70;;;1.90;;
26303;SDS011;57113;48.680;8.890;2023-04-03T00:06:04;3.05;;;1.77;;
26303;SDS011;57113;48.680;8.890;2023-04-03T00:08:34;2.55;;;1.67;;
26303;SDS011;57113;48.680;8.890;2023-04-03T00:11:00;2.30;;;1.77;;
26303;SDS011;57113;48.680;8.890;2023-04-03T00:13:26;1.90;;;1.67;;
26303;SDS011;57113;48.680;8.890;2023-04-03T00:15:52;3.92;;;2.00;;
26303;SDS011;57113;48.680;8.890;2023-04-03T00:18:18;3.30;;;1.92;;
26303;SDS011;57113;48.680;8.890;2023-04-03T00:20:44;3.55;;;1.83;;
26303;SDS011;57113;48.680;8.890;2023-04-03T00:23:10;2.63;;;1.88;;
26303;SDS011;57113;48.680;8.890;2023-04-03T00:25:36;2.83;;;1.80;;
26303;SDS011;57113;48.680;8.890;2023-04-03T00:28:02;3.95;;;1.92;;
26303;SDS011;57113;48.680;8.890;2023-04-03T00:30:28;3.20;;;1.77;;
26303;SDS011;57113;48.680;8.890;2023-04-03T00:32:54;2.70;;;1.58;;
26303;SDS011;57113;48.680;8.890;2023-04-03T00:35:20;3.40;;;2.00;;
26303;SDS011;57113;48.680;8.890;2023-04-03T00:37:46;4.28;;;1.77;;
26303;SDS011;57113;48.680;8.890;2023-04-03T00:40:13;3.10;;;1.80;;
26303;SDS011;57113;48.680;8.890;2023-04-03T00:42:41;3.85;;;1.70;;
26303;SDS011;57113;48.680;8.890;2023-04-03T00:47:43;2.58;;;1.63;;
26303;SDS011;57113;48.680;8.890;2023-04-03T00:50:09;2.97;;;1.80;;
26303;SDS011;57113;48.680;8.890;2023-04-03T00:52:35;3.67;;;1.75;;
26303;SDS011;57113;48.680;8.890;2023-04-03T00:55:04;2.95;;;1.83;;
26303;SDS011;57113;48.680;8.890;2023-04-03T00:57:32;2.05;;;1.70;;
26303;SDS011;57113;48.680;8.890;2023-04-03T01:00:04;3.00;;;1.83;;
26303;SDS011;57113;48.680;8.890;2023-04-03T01:02:34;2.05;;;1.55;;
26303;SDS011;57113;48.680;8.890;2023-04-03T01:04:59;3.58;;;1.90;;
26303;SDS011;57113;48.680;8.890;2023-04-03T01:07:31;2.35;;;1.77;;
26303;SDS011;57113;48.680;8.890;2023-04-03T01:10:00;2.55;;;1.80;;
26303;SDS011;57113;48.680;8.890;2023-04-03T01:12:30;2.78;;;1.95;;
26303;SDS011;57113;48.680;8.890;2023-04-03T01:15:10;1.92;;;1.73;;
26303;SDS011;57113;48.680;8.890;2023-04-03T01:17:48;2.55;;;1.50;;
26303;SDS011;57113;48.680;8.890;2023-04-03T01:25:39;4.40;;;2.00;;
26303;SDS011;57113;48.680;8.890;2023-04-03T01:28:08;2.30;;;1.60;;
26303;SDS011;57113;48.680;8.890;2023-04-03T01:30:37;2.92;;;1.80;;
26303;SDS011;57113;48.680;8.890;2023-04-03T01:33:11;2.55;;;1.80;;
26303;SDS011;57113;48.680;8.890;2023-04-03T01:35:37;3.05;;;1.80;;
26303;SDS011;57113;48.680;8.890;2023-04-03T01:38:02;3.35;;;1.60;;
26303;SDS011;57113;48.680;8.890;2023-04-03T01:40:28;2.97;;;1.90;;
26303;SDS011;57113;48.680;8.890;2023-04-03T01:42:54;2.75;;;1.90;;
26303;SDS011;57113;48.680;8.890;2023-04-03T01:45:19;2.80;;;1.80;;
26303;SDS011;57113;48.680;8.890;2023-04-03T01:47:45;2.45;;;1.70;;
26303;SDS011;57113;48.680;8.890;2023-04-03T01:50:11;2.25;;;1.70;;
26303;SDS011;57113;48.680;8.890;2023-04-03T01:52:36;2.00;;;1.63;;
26303;SDS011;57113;48.680;8.890;2023-04-03T01:55:02;3.13;;;1.80;;
26303;SDS011;57113;48.680;8.890;2023-04-03T01:57:28;2.40;;;1.70;;
26303;SDS011;57113;48.680;8.890;2023-04-03T01:59:53;3.00;;;1.63;;
26303;SDS011;57113;48.680;8.890;2023-04-03T02:02:19;3.92;;;1.80;;
26303;SDS011;57113;48.680;8.890;2023-04-03T02:04:45;1.90;;;1.50;;
26303;SDS011;57113;48.680;8.890;2023-04-03T02:07:11;1.83;;;1.45;;
26303;SDS011;57113;48.680;8.890;2023-04-03T02:09:37;3.00;;;1.60;;
26303;SDS011;57113;48.680;8.890;2023-04-03T02:12:02;2.40;;;1.90;;
26303;SDS011;57113;48.680;8.890;2023-04-03T02:14:28;4.53;;;1.77;;
26303;SDS011;57113;48.680;8.890;2023-04-03T02:16:54;3.15;;;1.83;;
26303;SDS011;57113;48.680;8.890;2023-04-03T02:19:20;2.92;;;1.80;;
26303;SDS011;57113;48.680;8.890;2023-04-03T02:21:45;2.58;;;1.73;;
26303;SDS011;57113;48.680;8.890;2023-04-03T02:24:11;2.67;;;1.80;;
26303;SDS011;57113;48.680;8.890;2023-04-03T02:26:36;2.50;;;1.58;;
26303;SDS011;57113;48.680;8.890;2023-04-03T02:29:02;2.42;;;1.42;;
26303;SDS011;57113;48.680;8.890;2023-04-03T02:31:28;3.33;;;1.83;;
26303;SDS011;57113;48.680;8.890;2023-04-03T02:33:53;2.60;;;1.73;;
26303;SDS011;57113;48.680;8.890;2023-04-03T02:36:19;3.08;;;1.80;;
26303;SDS011;57113;48.680;8.890;2023-04-03T02:38:45;2.55;;;1.65;;
26303;SDS011;57113;48.680;8.890;2023-04-03T02:41:11;3.45;;;1.90;;
26303;SDS011;57113;48.680;8.890;2023-04-03T02:43:37;2.63;;;1.42;;
26303;SDS011;57113;48.680;8.890;2023-04-03T02:46:04;3.35;;;1.77;;
26303;SDS011;57113;48.680;8.890;2023-04-03T02:48:30;3.08;;;1.85;;
26303;SDS011;57113;48.680;8.890;2023-04-03T02:50:56;2.80;;;2.05;;
26303;SDS011;57113;48.680;8.890;2023-04-03T02:53:22;4.35;;;2.00;;
26303;SDS011;57113;48.680;8.890;2023-04-03T02:55:48;3.10;;;1.77;;
26303;SDS011;57113;48.680;8.890;2023-04-03T02:58:14;2.50;;;1.50;;
26303;SDS011;57113;48.680;8.890;2023-04-03T03:00:40;3.58;;;2.08;;
26303;SDS011;57113;48.680;8.890;2023-04-03T03:03:06;3.30;;;1.95;;
26303;SDS011;57113;48.680;8.890;2023-04-03T03:05:32;3.20;;;1.55;;
26303;SDS011;57113;48.680;8.890;2023-04-03T03:07:58;2.13;;;1.88;;
26303;SDS011;57113;48.680;8.890;2023-04-03T03:10:24;2.92;;;1.80;;
26303;SDS011;57113;48.680;8.890;2023-04-03T03:12:49;4.18;;;1.58;;
26303;SDS011;57113;48.680;8.890;2023-04-03T03:15:15;1.95;;;1.45;;
26303;SDS011;57113;48.680;8.890;2023-04-03T03:17:42;1.65;;;1.40;;
26303;SDS011;57113;48.680;8.890;2023-04-03T03:20:08;2.90;;;2.10;;
26303;SDS011;57113;48.680;8.890;2023-04-03T03:22:34;1.83;;;1.67;;
26303;SDS011;57113;48.680;8.890;2023-04-03T03:25:00;3.20;;;1.83;;
26303;SDS011;57113;48.680;8.890;2023-04-03T03:27:27;3.17;;;2.05;;
26303;SDS011;57113;48.680;8.890;2023-04-03T03:29:53;2.38;;;1.88;;
26303;SDS011;57113;48.680;8.890;2023-04-03T03:32:18;2.75;;;2.05;;
26303;SDS011;57113;48.680;8.890;2023-04-03T03:34:44;3.17;;;1.88;;
26303;SDS011;57113;48.680;8.890;2023-04-03T03:37:10;2.97;;;1.83;;
26303;SDS011;57113;48.680;8.890;2023-04-03T03:39:35;2.50;;;1.70;;
26303;SDS011;57113;48.680;8.890;2023-04-03T03:42:01;3.60;;;1.75;;
26303;SDS011;57113;48.680;8.890;2023-04-03T03:44:26;2.53;;;1.75;;
26303;SDS011;57113;48.680;8.890;2023-04-03T03:46:54;2.28;;;1.90;;
26303;SDS011;57113;48.680;8.890;2023-04-03T03:49:20;2.30;;;1.63;;
26303;SDS011;57113;48.680;8.890;2023-04-03T03:51:46;3.08;;;2.00;;
26303;SDS011;57113;48.680;8.890;2023-04-03T03:54:11;2.28;;;1.50;;
26303;SDS011;57113;48.680;8.890;2023-04-03T03:56:37;3.17;;;1.88;;
26303;SDS011;57113;48.680;8.890;2023-04-03T03:59:03;1.98;;;1.70;;
26303;SDS011;57113;48.680;8.890;2023-04-03T04:01:28;3.90;;;1.80;;
26303;SDS011;57113;48.680;8.890;2023-04-03T04:03:54;2.97;;;1.63;;
26303;SDS011;57113;48.680;8.890;2023-04-03T04:06:20;2.55;;;1.90;;
26303;SDS011;57113;48.680;8.890;2023-04-03T04:08:46;3.55;;;1.85;;
26303;SDS011;57113;48.680;8.890;2023-04-03T04:11:12;2.58;;;1.70;;
26303;SDS011;57113;48.680;8.890;2023-04-03T04:13:38;3.03;;;1.77;;
26303;SDS011;57113;48.680;8.890;2023-04-03T04:16:03;2.55;;;1.63;;
26303;SDS011;57113;48.680;8.890;2023-04-03T04:18:30;2.08;;;1.60;;
26303;SDS011;57113;48.680;8.890;2023-04-03T04:20:56;2.65;;;1.50;;
26303;SDS011;57113;48.680;8.890;2023-04-03T04:23:21;2.08;;;1.75;;
26303;SDS011;57113;48.680;8.890;2023-04-03T04:25:48;2.65;;;1.63;;
26303;SDS011;57113;48.680;8.890;2023-04-03T04:28:14;3.13;;;1.98;;
26303;SDS011;57113;48.680;8.890;2023-04-03T04:30:40;2.42;;;1.60;;
26303;SDS011;57113;48.680;8.890;2023-04-03T04:33:06;3.15;;;1.70;;
26303;SDS011;57113;48.680;8.890;2023-04-03T04:35:33;3.85;;;1.83;;
26303;SDS011;57113;48.680;8.890;2023-04-03T04:37:59;4.68;;;1.90;;
26303;SDS011;57113;48.680;8.890;2023-04-03T04:40:25;2.80;;;1.73;;
26303;SDS011;57113;48.680;8.890;2023-04-03T04:42:51;3.67;;;1.83;;
26303;SDS011;57113;48.680;8.890;2023-04-03T04:45:18;2.58;;;1.80;;
26303;SDS011;57113;48.680;8.890;2023-04-03T04:47:44;2.97;;;1.80;;
26303;SDS011;57113;48.680;8.890;2023-04-03T04:50:10;3.90;;;1.88;;
26303;SDS011;57113;48.680;8.890;2023-04-03T04:52:36;2.45;;;1.83;;
26303;SDS011;57113;48.680;8.890;2023-04-03T04:55:02;2.88;;;1.77;;
26303;SDS011;57113;48.680;8.890;2023-04-03T04:57:28;2.72;;;1.83;;
26303;SDS011;57113;48.680;8.890;2023-04-03T04:59:54;2.90;;;1.70;;
26303;SDS011;57113;48.680;8.890;2023-04-03T05:02:20;2.92;;;1.83;;
26303;SDS011;57113;48.680;8.890;2023-04-03T05:04:45;4.03;;;1.95;;
26303;SDS011;57113;48.680;8.890;2023-04-03T05:07:11;2.03;;;1.60;;
26303;SDS011;57113;48.680;8.890;2023-04-03T05:09:37;2.88;;;1.85;;
26303;SDS011;57113;48.680;8.890;2023-04-03T05:12:02;3.65;;;1.73;;
26303;SDS011;57113;48.680;8.890;2023-04-03T05:14:28;2.28;;;1.48;;
26303;SDS011;57113;48.680;8.890;2023-04-03T05:16:54;2.50;;;1.80;;
26303;SDS011;57113;48.680;8.890;2023-04-03T05:19:20;3.38;;;1.70;;
26303;SDS011;57113;48.680;8.890;2023-04-03T05:21:46;1.92;;;1.55;;
26303;SDS011;57113;48.680;8.890;2023-04-03T05:24:12;2.55;;;1.48;;
26303;SDS011;57113;48.680;8.890;2023-04-03T05:26:38;1.60;;;1.50;;
26303;SDS011;57113;48.680;8.890;2023-04-03T05:29:06;3.58;;;1.80;;
26303;SDS011;57113;48.680;8.890;2023-04-03T05:31:31;2.03;;;1.65;;
26303;SDS011;57113;48.680;8.890;2023-04-03T05:33:57;2.50;;;1.45;;
26303;SDS011;57113;48.680;8.890;2023-04-03T05:36:23;2.58;;;1.77;;
26303;SDS011;57113;48.680;8.890;2023-04-03T05:38:50;2.97;;;1.70;;
26303;SDS011;57113;48.680;8.890;2023-04-03T05:41:16;3.35;;;1.60;;
26303;SDS011;57113;48.680;8.890;2023-04-03T05:43:41;2.05;;;1.67;;
26303;SDS011;57113;48.680;8.890;2023-04-03T05:46:11;2.92;;;1.80;;
26303;SDS011;57113;48.680;8.890;2023-04-03T05:48:38;2.38;;;1.58;;
26303;SDS011;57113;48.680;8.890;2023-04-03T05:51:04;3.15;;;1.60;;
26303;SDS011;57113;48.680;8.890;2023-04-03T05:53:31;2.17;;;1.60;;
26303;SDS011;57113;48.680;8.890;2023-04-03T05:55:59;3.05;;;1.77;;
26303;SDS011;57113;48.680;8.890;2023-04-03T05:58:25;2.60;;;1.80;;
26303;SDS011;57113;48.680;8.890;2023-04-03T06:00:51;2.17;;;1.60;;
26303;SDS011;57113;48.680;8.890;2023-04-03T06:03:17;2.03;;;1.50;;
26303;SDS011;57113;48.680;8.890;2023-04-03T06:05:42;3.10;;;1.80;;
26303;SDS011;57113;48.680;8.890;2023-04-03T06:08:08;3.22;;;1.60;;
26303;SDS011;57113;48.680;8.890;2023-04-03T06:10:34;1.83;;;1.63;;
26303;SDS011;57113;48.680;8.890;2023-04-03T06:13:00;2.63;;;1.75;;
26303;SDS011;57113;48.680;8.890;2023-04-03T06:15:26;3.25;;;1.75;;
26303;SDS011;57113;48.680;8.890;2023-04-03T06:17:53;2.72;;;1.70;;
26303;SDS011;57113;48.680;8.890;2023-04-03T06:20:18;3.35;;;1.80;;
26303;SDS011;57113;48.680;8.890;2023-04-03T06:22:44;2.58;;;1.65;;
26303;SDS011;57113;48.680;8.890;2023-04-03T06:25:10;2.03;;;1.70;;
26303;SDS011;57113;48.680;8.890;2023-04-03T06:27:37;1.52;;;1.42;;
26303;SDS011;57113;48.680;8.890;2023-04-03T06:30:02;2.58;;;2.03;;
26303;SDS011;57113;48.680;8.890;2023-04-03T06:32:29;2.95;;;1.60;;
26303;SDS011;57113;48.680;8.890;2023-04-03T06:34:55;4.05;;;1.80;;
26303;SDS011;57113;48.680;8.890;2023-04-03T06:37:22;3.03;;;1.80;;
26303;SDS011;57113;48.680;8.890;2023-04-03T06:39:50;3.78;;;1.80;;
26303;SDS011;57113;48.680;8.890;2023-04-03T06:42:16;5.03;;;2.20;;
26303;SDS011;57113;48.680;8.890;2023-04-03T06:44:42;4.20;;;1.73;;
26303;SDS011;57113;48.680;8.890;2023-04-03T06:47:11;6.60;;;2.28;;
26303;SDS011;57113;48.680;8.890;2023-04-03T06:49:38;6.03;;;1.80;;
26303;SDS011;57113;48.680;8.890;2023-04-03T06:52:04;2.65;;;1.90;;
26303;SDS011;57113;48.680;8.890;2023-04-03T06:54:30;5.07;;;2.13;;
26303;SDS011;57113;48.680;8.890;2023-04-03T06:56:56;4.70;;;1.95;;
26303;SDS011;57113;48.680;8.890;2023-04-03T06:59:22;5.25;;;2.33;;
26303;SDS011;57113;48.680;8.890;2023-04-03T07:01:48;2.78;;;1.90;;
26303;SDS011;57113;48.680;8.890;2023-04-03T07:04:14;3.42;;;1.98;;
26303;SDS011;57113;48.680;8.890;2023-04-03T07:06:40;3.80;;;1.90;;
26303;SDS011;57113;48.680;8.890;2023-04-03T07:09:07;3.17;;;2.28;;
26303;SDS011;57113;48.680;8.890;2023-04-03T07:11:35;4.70;;;1.80;;
26303;SDS011;57113;48.680;8.890;2023-04-03T07:14:01;3.70;;;1.85;;
26303;SDS011;57113;48.680;8.890;2023-04-03T07:16:28;4.03;;;2.15;;
26303;SDS011;57113;48.680;8.890;2023-04-03T07:18:55;3.15;;;1.98;;
26303;SDS011;57113;48.680;8.890;2023-04-03T07:21:22;3.75;;;2.10;;
26303;SDS011;57113;48.680;8.890;2023-04-03T07:23:48;5.82;;;1.80;;
26303;SDS011;57113;48.680;8.890;2023-04-03T07:26:13;2.78;;;1.80;;
26303;SDS011;57113;48.680;8.890;2023-04-03T07:28:39;2.97;;;1.90;;
26303;SDS011;57113;48.680;8.890;2023-04-03T07:31:07;2.53;;;1.70;;
26303;SDS011;57113;48.680;8.890;2023-04-03T07:33:38;3.42;;;1.95;;
26303;SDS011;57113;48.680;8.890;2023-04-03T07:36:04;2.50;;;1.63;;
26303;SDS011;57113;48.680;8.890;2023-04-03T07:38:31;6.13;;;1.80;;
26303;SDS011;57113;48.680;8.890;2023-04-03T07:40:57;2.92;;;1.92;;
26303;SDS011;57113;48.680;8.890;2023-04-03T07:43:23;4.80;;;1.80;;
26303;SDS011;57113;48.680;8.890;2023-04-03T07:45:49;2.67;;;1.58;;
26303;SDS011;57113;48.680;8.890;2023-04-03T07:48:16;3.45;;;1.88;;
26303;SDS011;57113;48.680;8.890;2023-04-03T07:50:46;3.25;;;1.77;;
26303;SDS011;57113;48.680;8.890;2023-04-03T07:53:12;3.05;;;1.80;;
26303;SDS011;57113;48.680;8.890;2023-04-03T07:55:39;1.88;;;1.40;;
26303;SDS011;57113;48.680;8.890;2023-04-03T07:58:11;3.80;;;1.77;;
26303;SDS011;57113;48.680;8.890;2023-04-03T08:00:40;4.03;;;1.45;;
26303;SDS011;57113;48.680;8.890;2023-04-03T08:03:07;3.95;;;1.63;;
26303;SDS011;57113;48.680;8.890;2023-04-03T08:05:41;2.97;;;1.50;;
26303;SDS011;57113;48.680;8.890;2023-04-03T08:08:08;3.30;;;1.80;;
26303;SDS011;57113;48.680;8.890;2023-04-03T08:10:35;5.47;;;1.55;;
26303;SDS011;57113;48.680;8.890;2023-04-03T08:13:01;4.28;;;1.90;;
26303;SDS011;57113;48.680;8.890;2023-04-03T08:15:26;1.73;;;1.30;;
26303;SDS011;57113;48.680;8.890;2023-04-03T08:17:52;2.40;;;1.55;;
26303;SDS011;57113;48.680;8.890;2023-04-03T08:20:19;2.78;;;1.60;;
26303;SDS011;57113;48.680;8.890;2023-04-03T08:22:45;2.78;;;1.60;;
26303;SDS011;57113;48.680;8.890;2023-04-03T08:25:10;4.30;;;1.90;;
26303;SDS011;57113;48.680;8.890;2023-04-03T08:27:36;2.25;;;1.73;;
26303;SDS011;57113;48.680;8.890;2023-04-03T08:30:02;2.92;;;1.50;;
26303;SDS011;57113;48.680;8.890;2023-04-03T08:32:29;4.63;;;1.50;;
26303;SDS011;57113;48.680;8.890;2023-04-03T08:34:55;2.45;;;1.50;;
26303;SDS011;57113;48.680;8.890;2023-04-03T08:37:22;2.08;;;1.63;;
26303;SDS011;57113;48.680;8.890;2023-04-03T08:39:48;3.35;;;1.70;;
26303;SDS011;57113;48.680;8.890;2023-04-03T08:50:12;2.63;;;1.38;;
26303;SDS011;57113;48.680;8.890;2023-04-03T08:52:50;2.88;;;1.63;;
26303;SDS011;57113;48.680;8.890;2023-04-03T08:55:25;2.17;;;1.33;;
26303;SDS011;57113;48.680;8.890;2023-04-03T08:57:57;2.28;;;1.52;;
26303;SDS011;57113;48.680;8.890;2023-04-03T09:00:26;2.40;;;1.40;;
26303;SDS011;57113;48.680;8.890;2023-04-03T09:02:57;1.88;;;1.35;;
26303;SDS011;57113;48.680;8.890;2023-04-03T09:08:05;2.63;;;1.35;;
26303;SDS011;57113;48.680;8.890;2023-04-03T09:10:58;5.57;;;1.45;;
26303;SDS011;57113;48.680;8.890;2023-04-03T09:14:08;6.45;;;2.00;;
26303;SDS011;57113;48.680;8.890;2023-04-03T09:17:00;4.55;;;1.75;;
26303;SDS011;57113;48.680;8.890;2023-04-03T09:22:21;4.80;;;1.60;;
26303;SDS011;57113;48.680;8.890;2023-04-03T09:24:51;3.70;;;1.85;;
26303;SDS011;57113;48.680;8.890;2023-04-03T09:27:26;3.72;;;1.67;;
26303;SDS011;57113;48.680;8.890;2023-04-03T09:29:56;3.10;;;1.52;;
26303;SDS011;57113;48.680;8.890;2023-04-03T09:34:54;4.95;;;1.55;;
26303;SDS011;57113;48.680;8.890;2023-04-03T09:37:36;3.30;;;1.50;;
26303;SDS011;57113;48.680;8.890;2023-04-03T09:43:00;3.03;;;1.52;;
26303;SDS011;57113;48.680;8.890;2023-04-03T09:45:43;5.35;;;1.70;;
26303;SDS011;57113;48.680;8.890;2023-04-03T09:55:56;3.20;;;1.60;;
26303;SDS011;57113;48.680;8.890;2023-04-03T10:00:55;4.78;;;1.60;;
26303;SDS011;57113;48.680;8.890;2023-04-03T10:03:29;4.65;;;1.60;;
26303;SDS011;57113;48.680;8.890;2023-04-03T10:05:57;2.80;;;1.60;;
26303;SDS011;57113;48.680;8.890;2023-04-03T10:08:25;2.83;;;1.48;;
26303;SDS011;57113;48.680;8.890;2023-04-03T10:11:09;4.80;;;1.80;;
26303;SDS011;57113;48.680;8.890;2023-04-03T10:13:49;5.32;;;1.80;;
26303;SDS011;57113;48.680;8.890;2023-04-03T10:16:20;2.90;;;1.30;;
26303;SDS011;57113;48.680;8.890;2023-04-03T10:25:03;5.05;;;1.60;;
26303;SDS011;57113;48.680;8.890;2023-04-03T10:27:46;4.15;;;1.48;;
26303;SDS011;57113;48.680;8.890;2023-04-03T10:30:30;5.68;;;1.65;;
26303;SDS011;57113;48.680;8.890;2023-04-03T10:33:19;1.98;;;1.20;;
26303;SDS011;57113;48.680;8.890;2023-04-03T10:41:04;3.45;;;1.83;;
26303;SDS011;57113;48.680;8.890;2023-04-03T10:49:10;3.55;;;1.42;;
26303;SDS011;57113;48.680;8.890;2023-04-03T10:52:11;1.85;;;1.20;;
26303;SDS011;57113;48.680;8.890;2023-04-03T10:54:56;2.20;;;1.48;;
26303;SDS011;57113;48.680;8.890;2023-04-03T10:57:24;2.75;;;1.23;;
26303;SDS011;57113;48.680;8.890;2023-04-03T10:59:58;3.50;;;1.52;;
26303;SDS011;57113;48.680;8.890;2023-04-03T11:03:12;4.47;;;1.58;;
26303;SDS011;57113;48.680;8.890;2023-04-03T11:07:57;3.65;;;1.40;;
26303;SDS011;57113;48.680;8.890;2023-04-03T11:10:44;3.08;;;1.30;;
26303;SDS011;57113;48.680;8.890;2023-04-03T11:13:19;3.22;;;1.40;;
26303;SDS011;57113;48.680;8.890;2023-04-03T11:15:52;3.70;;;1.50;;
26303;SDS011;57113;48.680;8.890;2023-04-03T11:18:28;2.05;;;1.08;;
26303;SDS011;57113;48.680;8.890;2023-04-03T11:23:51;1.90;;;1.23;;
26303;SDS011;57113;48.680;8.890;2023-04-03T11:26:22;1.73;;;1.23;;
26303;SDS011;57113;48.680;8.890;2023-04-03T11:28:53;3.75;;;1.02;;
26303;SDS011;57113;48.680;8.890;2023-04-03T11:36:49;2.20;;;1.25;;
26303;SDS011;57113;48.680;8.890;2023-04-03T11:39:24;2.45;;;1.40;;
26303;SDS011;57113;48.680;8.890;2023-04-03T11:41:53;2.83;;;1.40;;
26303;SDS011;57113;48.680;8.890;2023-04-03T11:44:35;5.63;;;1.40;;
26303;SDS011;57113;48.680;8.890;2023-04-03T11:47:03;3.13;;;1.20;;
26303;SDS011;57113;48.680;8.890;2023-04-03T12:26:51;2.42;;;1.15;;
26303;SDS011;57113;48.680;8.890;2023-04-03T12:46:04;2.92;;;1.20;;
26303;SDS011;57113;48.680;8.890;2023-04-03T12:51:21;2.83;;;1.17;;
26303;SDS011;57113;48.680;8.890;2023-04-03T12:53:58;1.85;;;1.10;;
26303;SDS011;57113;48.680;8.890;2023-04-03T12:56:29;1.92;;;1.20;;
26303;SDS011;57113;48.680;8.890;2023-04-03T12:59:12;1.42;;;0.95;;
26303;SDS011;57113;48.680;8.890;2023-04-03T13:01:38;1.65;;;0.90;;
26303;SDS011;57113;48.680;8.890;2023-04-03T13:04:03;2.58;;;1.17;;
26303;SDS011;57113;48.680;8.890;2023-04-03T13:06:39;2.00;;;1.25;;
26303;SDS011;57113;48.680;8.890;2023-04-03T13:09:18;2.60;;;1.30;;
26303;SDS011;57113;48.680;8.890;2023-04-03T13:11:51;2.83;;;1.17;;
26303;SDS011;57113;48.680;8.890;2023-04-03T13:14:25;1.95;;;0.80;;
26303;SDS011;57113;48.680;8.890;2023-04-03T13:17:12;2.35;;;1.13;;
26303;SDS011;57113;48.680;8.890;2023-04-03T13:19:40;1.92;;;1.20;;
26303;SDS011;57113;48.680;8.890;2023-04-03T13:24:50;2.35;;;1.15;;
26303;SDS011;57113;48.680;8.890;2023-04-03T13:27:17;2.17;;;1.10;;
26303;SDS011;57113;48.680;8.890;2023-04-03T13:29:43;1.42;;;1.10;;
26303;SDS011;57113;48.680;8.890;2023-04-03T13:32:17;3.58;;;1.00;;
26303;SDS011;57113;48.680;8.890;2023-04-03T13:34:45;1.88;;;1.13;;
26303;SDS011;57113;48.680;8.890;2023-04-03T13:37:22;2.78;;;1.30;;
26303;SDS011;57113;48.680;8.890;2023-04-03T13:42:31;2.42;;;1.25;;
26303;SDS011;57113;48.680;8.890;2023-04-03T13:45:16;1.35;;;0.90;;
26303;SDS011;57113;48.680;8.890;2023-04-03T13:48:06;2.42;;;1.30;;
26303;SDS011;57113;48.680;8.890;2023-04-03T13:50:41;1.88;;;0.93;;
26303;SDS011;57113;48.680;8.890;2023-04-03T13:53:26;3.25;;;1.20;;
26303;SDS011;57113;48.680;8.890;2023-04-03T13:55:56;1.35;;;1.00;;
26303;SDS011;57113;48.680;8.890;2023-04-03T13:58:25;3.88;;;1.17;;
26303;SDS011;57113;48.680;8.890;2023-04-03T14:01:00;2.75;;;1.42;;
26303;SDS011;57113;48.680;8.890;2023-04-03T14:03:56;2.45;;;1.20;;
26303;SDS011;57113;48.680;8.890;2023-04-03T14:06:22;1.58;;;1.10;;
26303;SDS011;57113;48.680;8.890;2023-04-03T14:08:48;2.22;;;1.10;;
26303;SDS011;57113;48.680;8.890;2023-04-03T14:11:16;2.28;;;1.10;;
26303;SDS011;57113;48.680;8.890;2023-04-03T14:13:45;1.92;;;1.20;;
26303;SDS011;57113;48.680;8.890;2023-04-03T14:16:15;2.33;;;1.38;;
26303;SDS011;57113;48.680;8.890;2023-04-03T14:18:46;2.28;;;1.00;;
26303;SDS011;57113;48.680;8.890;2023-04-03T14:21:14;1.63;;;0.98;;
26303;SDS011;57113;48.680;8.890;2023-04-03T14:23:40;3.40;;;1.42;;
26303;SDS011;57113;48.680;8.890;2023-04-03T14:26:13;2.22;;;1.00;;
26303;SDS011;57113;48.680;8.890;2023-04-03T14:28:42;2.05;;;1.38;;
26303;SDS011;57113;48.680;8.890;2023-04-03T14:31:12;2.20;;;1.20;;
26303;SDS011;57113;48.680;8.890;2023-04-03T14:33:39;2.35;;;1.27;;
26303;SDS011;57113;48.680;8.890;2023-04-03T14:36:15;1.20;;;0.90;;
26303;SDS011;57113;48.680;8.890;2023-04-03T14:38:43;2.50;;;1.20;;
26303;SDS011;57113;48.680;8.890;2023-04-03T14:41:13;2.20;;;1.20;;
26303;SDS011;57113;48.680;8.890;2023-04-03T14:43:41;3.60;;;1.08;;
26303;SDS011;57113;48.680;8.890;2023-04-03T14:46:41;3.10;;;1.45;;
26303;SDS011;57113;48.680;8.890;2023-04-03T14:49:02;3.15;;;1.48;;
26303;SDS011;57113;48.680;8.890;2023-04-03T14:51:32;2.10;;;1.30;;
26303;SDS011;57113;48.680;8.890;2023-04-03T14:53:58;2.53;;;1.40;;
26303;SDS011;57113;48.680;8.890;2023-04-03T14:56:26;2.88;;;1.38;;
26303;SDS011;57113;48.680;8.890;2023-04-03T14:59:00;1.83;;;1.20;;
26303;SDS011;57113;48.680;8.890;2023-04-03T15:01:26;2.20;;;1.10;;
26303;SDS011;57113;48.680;8.890;2023-04-03T15:03:53;2.63;;;1.30;;
26303;SDS011;57113;48.680;8.890;2023-04-03T15:06:19;2.33;;;1.10;;
26303;SDS011;57113;48.680;8.890;2023-04-03T15:08:46;1.90;;;1.23;;
26303;SDS011;57113;48.680;8.890;2023-04-03T15:11:13;1.83;;;1.27;;
26303;SDS011;57113;48.680;8.890;2023-04-03T15:13:39;2.35;;;1.33;;
26303;SDS011;57113;48.680;8.890;2023-04-03T15:16:06;1.65;;;1.10;;
26303;SDS011;57113;48.680;8.890;2023-04-03T15:18:43;2.78;;;1.23;;
26303;SDS011;57113;48.680;8.890;2023-04-03T15:21:09;1.95;;;1.20;;
26303;SDS011;57113;48.680;8.890;2023-04-03T15:23:35;2.67;;;1.30;;
26303;SDS011;57113;48.680;8.890;2023-04-03T15:26:01;3.17;;;1.13;;
26303;SDS011;57113;48.680;8.890;2023-04-03T15:28:28;2.65;;;1.30;;
26303;SDS011;57113;48.680;8.890;2023-04-03T15:31:03;3.45;;;1.27;;
26303;SDS011;57113;48.680;8.890;2023-04-03T15:33:29;1.65;;;1.20;;
26303;SDS011;57113;48.680;8.890;2023-04-03T15:35:55;3.58;;;1.52;;
26303;SDS011;57113;48.680;8.890;2023-04-03T15:38:21;2.10;;;1.30;;
26303;SDS011;57113;48.680;8.890;2023-04-03T15:40:47;1.25;;;1.00;;
26303;SDS011;57113;48.680;8.890;2023-04-03T15:43:13;1.70;;;1.30;;
26303;SDS011;57113;48.680;8.890;2023-04-03T15:45:39;2.42;;;1.10;;
26303;SDS011;57113;48.680;8.890;2023-04-03T15:48:06;1.65;;;1.17;;
26303;SDS011;57113;48.680;8.890;2023-04-03T15:50:33;3.08;;;1.23;;
26303;SDS011;57113;48.680;8.890;2023-04-03T15:53:00;2.28;;;1.10;;
26303;SDS011;57113;48.680;8.890;2023-04-03T15:55:27;2.63;;;1.05;;
26303;SDS011;57113;48.680;8.890;2023-04-03T15:57:55;2.65;;;1.40;;
26303;SDS011;57113;48.680;8.890;2023-04-03T16:00:21;2.92;;;1.38;;
26303;SDS011;57113;48.680;8.890;2023-04-03T16:02:48;1.55;;;1.00;;
26303;SDS011;57113;48.680;8.890;2023-04-03T16:05:16;1.85;;;1.33;;
26303;SDS011;57113;48.680;8.890;2023-04-03T16:07:43;1.33;;;1.05;;
26303;SDS011;57113;48.680;8.890;2023-04-03T16:10:11;1.85;;;1.35;;
26303;SDS011;57113;48.680;8.890;2023-04-03T16:12:39;2.25;;;1.17;;
26303;SDS011;57113;48.680;8.890;2023-04-03T16:15:05;2.30;;;1.20;;
26303;SDS011;57113;48.680;8.890;2023-04-03T16:17:32;1.90;;;1.15;;
26303;SDS011;57113;48.680;8.890;2023-04-03T16:19:58;2.00;;;1.20;;
26303;SDS011;57113;48.680;8.890;2023-04-03T16:22:25;1.60;;;1.00;;
26303;SDS011;57113;48.680;8.890;2023-04-03T16:24:52;3.08;;;1.20;;
26303;SDS011;57113;48.680;8.890;2023-04-03T16:27:18;2.00;;;0.98;;
26303;SDS011;57113;48.680;8.890;2023-04-03T16:29:44;2.38;;;1.40;;
26303;SDS011;57113;48.680;8.890;2023-04-03T16:32:10;2.65;;;1.30;;
26303;SDS011;57113;48.680;8.890;2023-04-03T16:34:37;2.22;;;1.20;;
26303;SDS011;57113;48.680;8.890;2023-04-03T16:37:02;2.35;;;1.30;;
26303;SDS011;57113;48.680;8.890;2023-04-03T16:39:28;2.13;;;1.35;;
26303;SDS011;57113;48.680;8.890;2023-04-03T16:41:54;3.10;;;1.30;;
26303;SDS011;57113;48.680;8.890;2023-04-03T16:44:20;4.68;;;1.52;;
26303;SDS011;57113;48.680;8.890;2023-04-03T16:46:45;2.42;;;1.23;;
26303;SDS011;57113;48.680;8.890;2023-04-03T16:49:11;1.55;;;1.10;;
26303;SDS011;57113;48.680;8.890;2023-04-03T16:51:36;2.40;;;1.20;;
26303;SDS011;57113;48.680;8.890;2023-04-03T16:54:02;1.88;;;1.13;;
26303;SDS011;57113;48.680;8.890;2023-04-03T16:56:28;1.88;;;1.10;;
26303;SDS011;57113;48.680;8.890;2023-04-03T16:58:53;1.70;;;1.17;;
26303;SDS011;57113;48.680;8.890;2023-04-03T17:01:19;2.80;;;1.70;;
26303;SDS011;57113;48.680;8.890;2023-04-03T17:03:47;3.67;;;1.40;;